Time;durP1;ratioP1;P1;durP2;ratioP2;P2;SDS_P1;SDS_P2;PMS_P1;PMS_P2;Temp;Humidity;BMP_temperature;BMP_pressure;BME280_temperature;BME280_humidity;BME280_pressure;Samples;Min_cycle;Max_cycle;Signal;HPM_P1;HPM_P2
2021/06/05 00:00:55;;;;;;;5.57;4.70;;;20.10;77.70;;;;;;5072329;28;20036;-66
2021/06/05 00:03:21;;;;;;;6.20;4.70;;;20.10;77.70;;;;;;5074477;28;20074;-69
2021/06/05 00:05:51;;;;;;;15.80;6.75;;;20.10;77.80;;;;;;5091574;28;20417;-67
2021/06/05 00:08:19;;;;;;;13.50;6.50;;;20.10;78.20;;;;;;5092722;28;20032;-72
2021/06/05 00:10:48;;;;;;;17.60;6.80;;;20.20;78.60;;;;;;5091558;28;20096;-72
2021/06/05 00:13:21;;;;;;;10.43;6.28;;;20.10;79.00;;;;;;5089920;28;20016;-67
2021/06/05 00:15:47;;;;;;;10.07;6.32;;;20.10;78.90;;;;;;5073113;28;20023;-67
2021/06/05 00:18:14;;;;;;;10.43;6.65;;;20.10;79.10;;;;;;5083901;28;20035;-72
2021/06/05 00:20:41;;;;;;;12.57;7.28;;;20.10;79.30;;;;;;5087078;28;20024;-67
2021/06/05 00:23:09;;;;;;;11.98;6.60;;;20.00;79.30;;;;;;5092060;28;20056;-67
2021/06/05 00:25:35;;;;;;;10.77;6.65;;;19.90;79.40;;;;;;5084333;28;20696;-67
2021/06/05 00:28:01;;;;;;;9.32;6.57;;;19.90;79.70;;;;;;5073647;28;20035;-67
2021/06/05 00:30:28;;;;;;;9.75;6.80;;;19.90;80.00;;;;;;5073774;28;20507;-67
2021/06/05 00:32:54;;;;;;;8.70;7.03;;;19.90;80.20;;;;;;5091727;28;20161;-67
2021/06/05 00:35:21;;;;;;;10.77;6.15;;;19.90;80.40;;;;;;5078487;28;20502;-67
2021/06/05 00:37:47;;;;;;;14.10;7.45;;;19.90;80.60;;;;;;5080064;28;20016;-66
2021/06/05 00:40:14;;;;;;;9.57;6.95;;;19.90;80.40;;;;;;5092150;28;20387;-67
2021/06/05 00:42:40;;;;;;;10.52;6.78;;;19.70;80.10;;;;;;5092145;28;20070;-67
2021/06/05 00:45:08;;;;;;;11.90;6.63;;;19.60;80.20;;;;;;5089814;28;20036;-71
2021/06/05 00:47:33;;;;;;;10.30;6.55;;;19.50;80.40;;;;;;5089445;28;20104;-74
2021/06/05 00:49:59;;;;;;;11.77;6.28;;;19.30;80.40;;;;;;5088674;28;20115;-77
2021/06/05 00:52:28;;;;;;;10.63;6.18;;;19.20;80.80;;;;;;5084733;28;20028;-68
2021/06/05 00:54:55;;;;;;;9.15;6.85;;;19.20;81.30;;;;;;5079882;28;20047;-68
2021/06/05 00:57:21;;;;;;;9.25;6.57;;;19.20;81.40;;;;;;5083139;28;20032;-67
2021/06/05 00:59:46;;;;;;;7.97;6.70;;;19.10;81.30;;;;;;5072870;28;20074;-68
2021/06/05 01:02:12;;;;;;;11.65;7.07;;;19.10;81.70;;;;;;5076702;28;20033;-73
2021/06/05 01:04:39;;;;;;;11.98;7.38;;;19.10;81.80;;;;;;5087271;28;20027;-70
2021/06/05 01:07:12;;;;;;;9.48;6.97;;;19.10;81.90;;;;;;5080999;28;20075;-68
2021/06/05 01:09:55;;;;;;;11.20;6.70;;;19.10;82.40;;;;;;5076165;28;20060;-67
2021/06/05 01:12:37;;;;;;;8.07;6.55;;;19.10;82.50;;;;;;5090147;28;20028;-68
2021/06/05 01:15:08;;;;;;;10.90;7.13;;;19.10;82.40;;;;;;5088394;28;20024;-70
2021/06/05 01:17:41;;;;;;;7.85;6.70;;;19.10;82.60;;;;;;5070983;28;20028;-68
2021/06/05 01:20:07;;;;;;;8.25;6.80;;;19.10;82.70;;;;;;5089710;28;20040;-70
2021/06/05 01:23:16;;;;;;;10.07;7.30;;;19.10;82.50;;;;;;5084424;28;20073;-69
2021/06/05 01:26:32;;;;;;;11.25;6.93;;;19.10;82.90;;;;;;5068623;28;20032;-67
2021/06/05 01:29:04;;;;;;;9.10;7.18;;;19.10;82.60;;;;;;5057160;28;20049;-68
2021/06/05 01:31:34;;;;;;;9.13;7.07;;;19.10;82.40;;;;;;5089739;28;20043;-68
2021/06/05 01:34:01;;;;;;;9.15;6.88;;;19.10;82.60;;;;;;5081935;28;20055;-68
2021/06/05 01:36:27;;;;;;;11.27;6.55;;;19.10;82.60;;;;;;5070960;28;20079;-68
2021/06/05 01:39:01;;;;;;;10.88;7.03;;;19.10;82.70;;;;;;5087318;28;20168;-68
2021/06/05 01:41:29;;;;;;;7.75;6.85;;;19.10;83.00;;;;;;5084814;28;20460;-68
2021/06/05 01:43:55;;;;;;;11.82;6.80;;;19.10;82.80;;;;;;5069769;28;20032;-68
2021/06/05 01:46:36;;;;;;;9.68;6.95;;;19.10;82.80;;;;;;5081106;28;20407;-68
2021/06/05 01:49:01;;;;;;;11.60;7.07;;;19.10;82.90;;;;;;5090706;28;20028;-75
2021/06/05 01:51:28;;;;;;;9.25;7.40;;;19.10;82.80;;;;;;5090194;28;20024;-68
2021/06/05 01:53:59;;;;;;;8.43;7.35;;;19.00;82.70;;;;;;5075728;28;20073;-71
2021/06/05 01:56:36;;;;;;;11.13;7.55;;;19.00;82.90;;;;;;5087632;28;20059;-68
2021/06/05 01:59:04;;;;;;;9.55;7.07;;;18.90;83.30;;;;;;5074370;28;20127;-73
2021/06/05 02:01:30;;;;;;;11.45;7.60;;;18.90;83.10;;;;;;5076566;28;20058;-68
2021/06/05 02:03:56;;;;;;;12.98;7.82;;;18.90;83.10;;;;;;5083421;28;20123;-75
2021/06/05 02:06:22;;;;;;;12.45;7.57;;;18.90;83.10;;;;;;5090029;28;20103;-68
2021/06/05 02:08:48;;;;;;;9.15;7.03;;;18.90;83.20;;;;;;5089780;28;20024;-71
2021/06/05 02:11:18;;;;;;;9.70;7.05;;;18.90;83.30;;;;;;5088854;28;20049;-75
2021/06/05 02:13:55;;;;;;;8.13;7.28;;;18.90;83.40;;;;;;5090742;28;20016;-68
2021/06/05 02:16:34;;;;;;;9.95;7.38;;;18.90;83.60;;;;;;5080916;28;20027;-68
2021/06/05 02:19:15;;;;;;;9.35;7.85;;;18.90;83.60;;;;;;5112103;22;20129;-87
2021/06/05 02:21:43;;;;;;;9.52;7.53;;;18.90;83.50;;;;;;5085248;28;20069;-87
2021/06/05 02:24:17;;;;;;;13.65;7.65;;;18.80;83.00;;;;;;5081436;28;20298;-88
2021/06/05 02:26:44;;;;;;;11.73;8.02;;;18.70;83.30;;;;;;5085972;28;20028;-89
2021/06/05 02:29:12;;;;;;;12.30;8.63;;;18.60;83.30;;;;;;5092752;28;20036;-87
2021/06/05 02:31:39;;;;;;;13.48;8.90;;;18.60;83.40;;;;;;5078829;28;20063;-87
2021/06/05 02:34:07;;;;;;;10.07;8.70;;;18.50;83.60;;;;;;5079988;28;20106;-88
2021/06/05 02:36:37;;;;;;;11.40;8.45;;;18.40;83.80;;;;;;5079507;28;20027;-88
2021/06/05 02:39:05;;;;;;;9.95;8.02;;;18.30;83.90;;;;;;5087192;28;20024;-87
2021/06/05 02:41:31;;;;;;;10.80;8.57;;;18.30;84.20;;;;;;5088412;28;20080;-87
2021/06/05 02:43:57;;;;;;;11.55;8.05;;;18.30;84.30;;;;;;5082444;28;20024;-87
2021/06/05 02:46:27;;;;;;;11.95;8.50;;;18.30;84.40;;;;;;5093614;28;20027;-87
2021/06/05 02:48:59;;;;;;;11.13;8.13;;;18.30;84.50;;;;;;5087862;28;20047;-87
2021/06/05 02:51:29;;;;;;;13.77;8.57;;;18.20;84.60;;;;;;5093167;28;20079;-87
2021/06/05 02:53:54;;;;;;;11.45;8.15;;;18.20;84.60;;;;;;5105601;28;20515;-87
2021/06/05 02:56:21;;;;;;;11.45;8.02;;;18.20;84.80;;;;;;5074243;28;20051;-88
2021/06/05 02:58:46;;;;;;;12.02;8.70;;;18.20;84.70;;;;;;5074967;28;20024;-87
2021/06/05 03:01:12;;;;;;;12.77;8.05;;;18.20;84.70;;;;;;5081337;28;20031;-87
2021/06/05 03:03:38;;;;;;;12.43;8.13;;;18.10;84.70;;;;;;5088291;28;20050;-87
2021/06/05 03:06:05;;;;;;;10.77;8.38;;;18.10;84.80;;;;;;5090869;28;20032;-87
2021/06/05 03:08:35;;;;;;;17.52;8.40;;;18.10;85.00;;;;;;5081369;28;20024;-88
2021/06/05 03:11:03;;;;;;;13.13;8.60;;;18.00;85.10;;;;;;5075804;28;20032;-88
2021/06/05 03:13:29;;;;;;;10.88;7.80;;;18.00;85.10;;;;;;5086673;28;20028;-88
2021/06/05 03:15:55;;;;;;;12.15;8.13;;;18.00;85.20;;;;;;5075151;28;20112;-87
2021/06/05 03:18:23;;;;;;;13.23;8.52;;;18.00;85.30;;;;;;5079465;28;20017;-88
2021/06/05 03:20:51;;;;;;;10.40;7.50;;;18.00;85.30;;;;;;5086019;28;20036;-88
2021/06/05 03:23:20;;;;;;;10.45;8.20;;;18.00;85.30;;;;;;5095030;28;20388;-87
2021/06/05 03:25:46;;;;;;;13.98;8.70;;;18.00;85.40;;;;;;5084365;28;20028;-87
2021/06/05 03:28:13;;;;;;;12.10;7.97;;;18.00;85.30;;;;;;5075434;28;20043;-87
2021/06/05 03:30:39;;;;;;;12.80;8.25;;;18.00;85.30;;;;;;5087422;28;20039;-88
2021/06/05 03:33:06;;;;;;;11.50;8.10;;;18.00;85.30;;;;;;5093738;28;20024;-87
2021/06/05 03:35:32;;;;;;;9.85;7.65;;;18.10;85.40;;;;;;5083507;28;20119;-88
2021/06/05 03:37:58;;;;;;;10.40;7.95;;;18.10;85.30;;;;;;5089354;28;20028;-87
2021/06/05 03:40:27;;;;;;;10.05;6.93;;;18.10;85.20;;;;;;5081384;28;20017;-87
2021/06/05 03:42:53;;;;;;;10.75;7.57;;;18.10;85.20;;;;;;5090357;28;20031;-88
2021/06/05 03:45:20;;;;;;;9.20;7.80;;;18.10;85.10;;;;;;5073971;28;20078;-88
2021/06/05 03:47:46;;;;;;;11.23;7.60;;;18.10;85.10;;;;;;5074159;28;20527;-88
2021/06/05 03:50:15;;;;;;;8.35;7.10;;;18.10;85.10;;;;;;5102023;28;20053;-90
2021/06/05 03:52:41;;;;;;;8.43;7.53;;;18.10;85.10;;;;;;5100664;28;20024;-87
2021/06/05 03:55:08;;;;;;;9.70;7.05;;;18.20;85.10;;;;;;5075117;28;20489;-87
2021/06/05 03:57:34;;;;;;;11.23;7.57;;;18.10;85.00;;;;;;5075730;28;20028;-88
2021/06/05 04:00:00;;;;;;;9.02;7.13;;;18.20;85.00;;;;;;5088536;28;20016;-88
2021/06/05 04:02:26;;;;;;;10.70;5.80;;;18.20;85.00;;;;;;5093745;28;20123;-88
2021/06/05 04:04:52;;;;;;;7.95;5.97;;;18.10;84.80;;;;;;5091911;28;20435;-89
2021/06/05 04:07:19;;;;;;;6.55;5.90;;;18.10;84.60;;;;;;5098350;28;20028;-88
2021/06/05 04:09:45;;;;;;;9.10;5.90;;;18.10;84.40;;;;;;5086954;28;20102;-88
2021/06/05 04:12:12;;;;;;;7.22;5.15;;;18.00;84.40;;;;;;5083053;28;20063;-87
2021/06/05 04:14:39;;;;;;;7.18;5.22;;;18.00;84.50;;;;;;5082353;28;20257;-88
2021/06/05 04:17:07;;;;;;;7.00;5.85;;;17.90;84.40;;;;;;5092070;28;20024;-88
2021/06/05 04:19:33;;;;;;;6.18;4.78;;;17.90;84.60;;;;;;5083495;28;20024;-88
2021/06/05 04:21:59;;;;;;;6.53;4.97;;;17.90;84.70;;;;;;5098287;28;20490;-88
2021/06/05 04:24:24;;;;;;;5.05;4.05;;;17.90;84.80;;;;;;5081976;28;20055;-88
2021/06/05 04:26:51;;;;;;;5.72;4.40;;;17.90;84.90;;;;;;5083473;28;20377;-88
2021/06/05 04:29:17;;;;;;;8.05;5.05;;;17.90;84.80;;;;;;5091105;28;20067;-88
2021/06/05 04:31:42;;;;;;;5.45;4.43;;;18.00;84.90;;;;;;5108396;28;20052;-88
2021/06/05 04:34:08;;;;;;;4.75;4.20;;;18.00;84.90;;;;;;5088157;28;20064;-88
2021/06/05 04:36:34;;;;;;;6.18;4.30;;;18.00;84.70;;;;;;5080437;28;20020;-87
2021/06/05 04:38:59;;;;;;;6.63;3.60;;;18.00;84.70;;;;;;5090394;28;20028;-88
2021/06/05 04:41:26;;;;;;;5.10;4.32;;;18.00;84.60;;;;;;5088837;28;20166;-87
2021/06/05 04:43:52;;;;;;;5.25;4.20;;;18.00;84.70;;;;;;5073077;28;20035;-87
2021/06/05 04:46:17;;;;;;;7.78;4.80;;;18.10;84.80;;;;;;5079021;28;20040;-88
2021/06/05 04:48:45;;;;;;;5.70;4.40;;;18.10;84.60;;;;;;5079481;28;20494;-87
2021/06/05 04:51:12;;;;;;;4.40;4.00;;;18.10;84.60;;;;;;5092454;28;20024;-88
2021/06/05 04:53:38;;;;;;;4.47;3.70;;;18.10;84.60;;;;;;5079224;28;20100;-87
2021/06/05 04:56:05;;;;;;;6.80;3.78;;;18.10;84.50;;;;;;5083410;28;20138;-87
2021/06/05 04:58:31;;;;;;;4.60;3.63;;;18.10;84.50;;;;;;5075352;28;20048;-87
2021/06/05 05:00:57;;;;;;;3.72;3.40;;;18.10;84.60;;;;;;5078109;28;20032;-88
2021/06/05 05:03:25;;;;;;;5.78;3.42;;;18.10;84.50;;;;;;5080463;28;20392;-88
2021/06/05 05:05:53;;;;;;;3.78;3.17;;;18.20;84.30;;;;;;5087120;28;20055;-88
2021/06/05 05:08:20;;;;;;;3.40;3.10;;;18.20;84.10;;;;;;5075851;28;20020;-88
2021/06/05 05:10:49;;;;;;;4.03;2.80;;;18.20;84.00;;;;;;5084005;28;20511;-88
2021/06/05 05:13:20;;;;;;;3.50;3.03;;;18.20;83.80;;;;;;5086258;28;20123;-88
2021/06/05 05:15:46;;;;;;;3.70;3.40;;;18.20;83.60;;;;;;5077168;28;20013;-87
2021/06/05 05:18:13;;;;;;;3.75;3.05;;;18.20;83.70;;;;;;5083488;28;20016;-88
2021/06/05 05:20:40;;;;;;;6.30;3.00;;;18.20;83.90;;;;;;5080548;28;20139;-88
2021/06/05 05:23:07;;;;;;;6.88;3.40;;;18.20;84.20;;;;;;5071721;28;20037;-88
2021/06/05 05:25:33;;;;;;;3.25;2.72;;;18.30;84.30;;;;;;5086011;28;20020;-88
2021/06/05 05:28:01;;;;;;;3.17;2.67;;;18.30;84.10;;;;;;5084071;28;20032;-88
2021/06/05 05:30:49;;;;;;;2.90;2.33;;;18.40;83.80;;;;;;5085267;28;20039;-88
2021/06/05 05:33:16;;;;;;;3.53;2.30;;;18.50;83.90;;;;;;5091774;28;20418;-88
2021/06/05 05:35:41;;;;;;;2.30;2.10;;;18.60;83.90;;;;;;5086577;28;20032;-88
2021/06/05 05:38:09;;;;;;;3.15;2.33;;;18.70;83.60;;;;;;5076530;28;20070;-88
2021/06/05 05:40:36;;;;;;;2.25;1.90;;;18.90;83.10;;;;;;5084009;28;20028;-87
2021/06/05 05:43:02;;;;;;;4.03;1.83;;;19.00;83.10;;;;;;5088329;28;20024;-88
2021/06/05 05:45:27;;;;;;;2.17;1.80;;;19.20;83.00;;;;;;5081435;28;20031;-88
2021/06/05 05:47:56;;;;;;;2.55;1.92;;;19.40;82.60;;;;;;5087566;28;20028;-88
2021/06/05 05:50:23;;;;;;;2.35;1.90;;;19.60;82.10;;;;;;5075144;28;20435;-88
2021/06/05 05:52:48;;;;;;;1.95;1.75;;;19.80;81.20;;;;;;5090762;28;20111;-89
2021/06/05 05:55:15;;;;;;;2.38;1.60;;;19.90;81.00;;;;;;5091747;28;20103;-88
2021/06/05 05:57:40;;;;;;;2.20;1.75;;;20.00;80.80;;;;;;5086272;28;20030;-89
2021/06/05 06:00:10;;;;;;;3.22;1.80;;;20.10;80.70;;;;;;5099729;28;20033;-90
2021/06/05 06:02:36;;;;;;;1.73;1.48;;;20.20;80.60;;;;;;5088757;28;20036;-89
2021/06/05 06:05:02;;;;;;;1.58;1.45;;;20.40;80.30;;;;;;5074957;28;20029;-91
2021/06/05 06:07:28;;;;;;;3.85;1.60;;;20.50;80.00;;;;;;5073053;28;20310;-89
2021/06/05 06:09:53;;;;;;;2.40;1.50;;;20.70;79.40;;;;;;5094197;28;20023;-89
2021/06/05 06:12:19;;;;;;;3.65;1.75;;;20.80;79.00;;;;;;5091212;28;20177;-90
2021/06/05 06:14:45;;;;;;;5.70;1.83;;;20.90;78.70;;;;;;5084135;28;20070;-89
2021/06/05 06:17:11;;;;;;;3.10;1.88;;;20.90;78.20;;;;;;5087093;28;20309;-90
2021/06/05 06:19:38;;;;;;;2.72;2.03;;;21.00;77.60;;;;;;5088643;28;20034;-88
2021/06/05 06:22:04;;;;;;;3.30;1.80;;;20.90;77.10;;;;;;5085125;28;20033;-89
2021/06/05 06:24:30;;;;;;;3.90;2.10;;;20.90;77.10;;;;;;5086054;28;20032;-89
2021/06/05 06:26:56;;;;;;;2.65;2.35;;;20.90;77.10;;;;;;5083357;28;20028;-90
2021/06/05 06:29:29;;;;;;;2.42;1.75;;;20.80;76.80;;;;;;5088936;28;20020;-89
2021/06/05 06:31:55;;;;;;;1.70;1.60;;;20.80;76.90;;;;;;5088136;28;20584;-90
2021/06/05 06:34:22;;;;;;;2.42;1.65;;;20.80;76.80;;;;;;5078112;28;20071;-90
2021/06/05 06:36:48;;;;;;;2.60;1.60;;;20.90;76.80;;;;;;5084252;28;20051;-90
2021/06/05 06:39:14;;;;;;;3.83;1.80;;;20.90;76.10;;;;;;5087970;28;20032;-90
2021/06/05 06:41:41;;;;;;;3.10;1.42;;;20.80;75.90;;;;;;5088905;28;20475;-90
2021/06/05 06:44:07;;;;;;;3.50;1.60;;;20.80;75.90;;;;;;5081587;28;20037;-90
2021/06/05 06:46:40;;;;;;;3.42;1.90;;;20.80;75.90;;;;;;5084132;28;20098;-90
2021/06/05 06:49:07;;;;;;;4.28;2.08;;;20.80;75.70;;;;;;5082850;28;20107;-90
2021/06/05 06:51:35;;;;;;;2.45;1.67;;;20.70;75.70;;;;;;5075621;28;20027;-90
2021/06/05 06:54:02;;;;;;;4.90;1.80;;;20.70;75.50;;;;;;5078295;28;20024;-89
2021/06/05 06:56:27;;;;;;;2.08;1.80;;;20.70;75.80;;;;;;5077377;28;20484;-89
2021/06/05 06:58:53;;;;;;;5.88;2.03;;;20.60;75.70;;;;;;5079126;28;20071;-91
2021/06/05 07:01:19;;;;;;;4.47;1.92;;;20.60;76.00;;;;;;5085064;28;20029;-89
2021/06/05 07:03:45;;;;;;;3.13;2.60;;;20.70;76.30;;;;;;5089276;28;20040;-90
2021/06/05 07:06:11;;;;;;;2.60;2.20;;;20.70;76.50;;;;;;5092185;28;20036;-89
2021/06/05 07:15:28;;;;;;;3.85;2.08;;;21.00;76.30;;;;;;5069610;22;20053;-77
2021/06/05 07:17:53;;;;;;;2.35;2.00;;;21.10;76.00;;;;;;5066771;28;20082;-73
2021/06/05 07:20:19;;;;;;;2.72;1.50;;;21.10;75.40;;;;;;5067442;28;20497;-76
2021/06/05 07:22:55;;;;;;;4.53;1.20;;;21.20;75.50;;;;;;5058801;28;20031;-75
2021/06/05 07:25:21;;;;;;;1.77;1.38;;;21.20;75.30;;;;;;5053008;28;20079;-76
2021/06/05 07:27:47;;;;;;;1.85;1.60;;;21.30;74.80;;;;;;5051476;28;20114;-74
2021/06/05 07:30:14;;;;;;;2.45;1.60;;;21.30;74.30;;;;;;5057582;28;20021;-75
2021/06/05 07:32:40;;;;;;;2.67;1.30;;;21.30;74.10;;;;;;5051247;28;20382;-74
2021/06/05 07:35:07;;;;;;;2.78;1.92;;;21.30;74.40;;;;;;5055511;28;20511;-75
2021/06/05 07:37:33;;;;;;;2.95;1.90;;;21.30;74.40;;;;;;5051261;28;20025;-74
2021/06/05 07:40:00;;;;;;;2.45;1.50;;;21.30;74.20;;;;;;5050919;28;20024;-73
2021/06/05 07:42:25;;;;;;;1.90;1.58;;;21.30;74.30;;;;;;5048386;28;20021;-75
2021/06/05 07:44:51;;;;;;;6.03;1.88;;;21.40;74.50;;;;;;5050482;28;20082;-75
2021/06/05 07:47:17;;;;;;;4.75;1.30;;;21.60;74.20;;;;;;5049162;28;20115;-73
2021/06/05 07:49:42;;;;;;;2.05;1.20;;;21.80;73.00;;;;;;5055677;28;20036;-72
2021/06/05 07:52:11;;;;;;;2.95;1.10;;;21.80;72.60;;;;;;5051722;28;20021;-74
2021/06/05 07:54:37;;;;;;;2.88;1.20;;;21.70;72.40;;;;;;5055340;28;20025;-73
2021/06/05 07:57:03;;;;;;;2.08;1.10;;;21.60;72.70;;;;;;5052889;28;20048;-70
2021/06/05 07:59:30;;;;;;;1.20;1.00;;;21.50;73.00;;;;;;5049911;28;20056;-71
2021/06/05 08:01:56;;;;;;;2.42;1.10;;;21.50;73.30;;;;;;5051875;28;20025;-72
2021/06/05 08:04:22;;;;;;;2.53;1.10;;;21.50;73.20;;;;;;5066170;28;20071;-73
2021/06/05 08:06:49;;;;;;;2.10;1.38;;;21.50;72.90;;;;;;5043641;28;20028;-72
2021/06/05 08:09:16;;;;;;;3.33;1.50;;;21.50;72.70;;;;;;5049267;28;20029;-70
2021/06/05 08:11:42;;;;;;;3.97;1.40;;;21.40;72.70;;;;;;5054974;28;20508;-70
2021/06/05 08:14:08;;;;;;;1.20;1.05;;;21.50;72.70;;;;;;5049632;28;20036;-73
2021/06/05 08:16:37;;;;;;;1.20;1.10;;;21.40;72.70;;;;;;5066823;28;20032;-71
2021/06/05 08:19:11;;;;;;;2.05;1.17;;;21.40;72.50;;;;;;5067842;22;20013;-76
2021/06/05 08:21:38;;;;;;;2.17;1.40;;;21.40;72.40;;;;;;5042414;28;20068;-74
2021/06/05 08:24:03;;;;;;;4.30;1.33;;;21.40;72.40;;;;;;5043533;28;20029;-73
2021/06/05 08:26:29;;;;;;;3.17;1.17;;;21.40;72.60;;;;;;5049512;28;20021;-73
2021/06/05 08:28:55;;;;;;;3.30;1.30;;;21.40;72.40;;;;;;5050172;28;20052;-73
2021/06/05 08:31:21;;;;;;;4.40;1.50;;;21.40;72.60;;;;;;5042019;28;20033;-73
2021/06/05 08:33:48;;;;;;;1.48;1.38;;;21.50;72.40;;;;;;5039117;28;20059;-72
2021/06/05 08:36:16;;;;;;;1.83;1.15;;;21.50;72.40;;;;;;5050605;28;20549;-72
2021/06/05 08:38:42;;;;;;;1.75;1.25;;;21.50;72.20;;;;;;5050940;28;20568;-73
2021/06/05 08:41:16;;;;;;;1.52;1.10;;;21.60;71.90;;;;;;5043591;28;20025;-72
2021/06/05 08:43:52;;;;;;;3.13;1.23;;;21.60;71.90;;;;;;5051510;28;20111;-73
2021/06/05 08:46:29;;;;;;;4.10;1.30;;;21.60;71.20;;;;;;5050447;28;20039;-73
2021/06/05 08:48:58;;;;;;;1.25;1.20;;;21.50;71.20;;;;;;5049911;28;20107;-74
2021/06/05 08:51:41;;;;;;;6.88;1.27;;;21.40;71.70;;;;;;5040718;28;20029;-74
2021/06/05 08:54:34;;;;;;;2.78;1.30;;;21.40;71.70;;;;;;5049071;28;20033;-74
2021/06/05 08:57:18;;;;;;;4.43;1.30;;;21.50;71.60;;;;;;5013880;28;20036;-74
2021/06/05 08:59:46;;;;;;;1.88;1.23;;;21.50;71.90;;;;;;5031465;28;20029;-74
2021/06/05 09:02:13;;;;;;;1.48;1.38;;;21.60;71.90;;;;;;5050652;28;20028;-74
2021/06/05 09:04:40;;;;;;;2.15;1.38;;;21.60;71.60;;;;;;5050254;28;20689;-74
2021/06/05 09:07:09;;;;;;;2.15;1.48;;;21.60;71.60;;;;;;5049810;28;20042;-72
2021/06/05 09:09:39;;;;;;;3.42;2.45;;;21.70;71.40;;;;;;5051278;28;20087;-72
2021/06/05 09:12:07;;;;;;;3.35;1.42;;;21.70;71.40;;;;;;5020414;28;20033;-73
2021/06/05 09:14:33;;;;;;;1.38;1.27;;;21.60;71.30;;;;;;5048832;28;20044;-73
2021/06/05 09:17:03;;;;;;;2.00;1.40;;;21.60;71.40;;;;;;5048914;28;20029;-75
2021/06/05 09:19:35;;;;;;;2.83;1.58;;;21.60;71.70;;;;;;5045283;28;20018;-68
2021/06/05 09:22:06;;;;;;;3.03;1.50;;;21.60;71.90;;;;;;5021674;28;20436;-69
2021/06/05 09:24:44;;;;;;;3.40;1.80;;;21.60;71.90;;;;;;5012504;28;20037;-69
2021/06/05 09:27:16;;;;;;;4.25;1.80;;;21.50;71.90;;;;;;5031569;28;20026;-69
2021/06/05 09:29:47;;;;;;;5.45;1.67;;;21.40;72.10;;;;;;5050839;28;20082;-69
2021/06/05 09:32:17;;;;;;;2.40;1.90;;;21.30;72.30;;;;;;5039584;28;20026;-69
2021/06/05 09:34:46;;;;;;;5.95;2.28;;;21.20;72.60;;;;;;5040443;28;20131;-69
2021/06/05 09:37:40;;;;;;;4.40;2.13;;;21.20;73.00;;;;;;5050901;28;20056;-69
2021/06/05 09:40:27;;;;;;;4.07;2.00;;;21.10;73.10;;;;;;5032241;28;20533;-69
2021/06/05 09:42:57;;;;;;;3.22;1.92;;;21.10;73.00;;;;;;5033771;28;20033;-69
2021/06/05 09:45:28;;;;;;;3.22;2.03;;;21.30;73.00;;;;;;5049423;28;20029;-69
2021/06/05 09:48:16;;;;;;;2.22;2.03;;;21.40;72.80;;;;;;5033283;28;20488;-69
2021/06/05 09:50:45;;;;;;;5.30;2.03;;;21.60;72.50;;;;;;5037479;28;20044;-69
2021/06/05 09:53:22;;;;;;;3.42;2.00;;;21.60;72.70;;;;;;5031257;28;20021;-69
2021/06/05 09:55:47;;;;;;;2.90;1.90;;;21.60;72.20;;;;;;5030202;28;20025;-69
2021/06/05 09:58:40;;;;;;;20.25;3.30;;;21.60;72.40;;;;;;5043803;28;20021;-69
2021/06/05 10:01:18;;;;;;;5.15;3.15;;;21.70;72.60;;;;;;5050295;28;20432;-69
2021/06/05 10:03:44;;;;;;;4.07;2.58;;;21.60;72.20;;;;;;5050937;28;20095;-69
2021/06/05 10:06:32;;;;;;;4.72;2.70;;;21.60;71.90;;;;;;5049674;28;20029;-69
2021/06/05 10:08:58;;;;;;;5.05;2.40;;;21.60;72.00;;;;;;5050490;28;20037;-69
2021/06/05 10:11:36;;;;;;;3.67;2.22;;;21.60;72.00;;;;;;5050834;28;20052;-69
2021/06/05 10:14:07;;;;;;;2.50;1.88;;;21.70;72.30;;;;;;5048047;28;20032;-69
2021/06/05 10:16:36;;;;;;;3.50;2.20;;;21.70;72.00;;;;;;5049280;28;20044;-69
2021/06/05 10:19:19;;;;;;;5.03;1.98;;;21.70;71.90;;;;;;5041833;28;20106;-69
2021/06/05 10:21:47;;;;;;;3.78;2.00;;;21.80;72.20;;;;;;5046364;28;20029;-69
2021/06/05 10:24:32;;;;;;;2.45;2.25;;;21.80;72.00;;;;;;5048599;28;20021;-69
2021/06/05 10:27:04;;;;;;;3.08;2.08;;;21.90;72.00;;;;;;5049590;28;20033;-69
2021/06/05 10:29:49;;;;;;;4.00;2.30;;;21.90;71.60;;;;;;5046300;28;20029;-69
2021/06/05 10:32:39;;;;;;;4.90;2.33;;;21.90;71.80;;;;;;5053062;28;20029;-68
2021/06/05 10:35:26;;;;;;;3.58;2.30;;;21.90;71.70;;;;;;5053027;28;20029;-69
2021/06/05 10:37:59;;;;;;;3.25;2.30;;;21.90;72.10;;;;;;5054171;28;20032;-74
2021/06/05 10:40:27;;;;;;;4.32;2.55;;;22.10;72.60;;;;;;5036864;28;20468;-74
2021/06/05 10:42:53;;;;;;;3.58;2.13;;;22.10;72.40;;;;;;5036293;28;20021;-74
2021/06/05 10:45:29;;;;;;;3.67;2.05;;;22.20;72.60;;;;;;5051516;28;20057;-68
2021/06/05 10:48:20;;;;;;;3.50;2.28;;;22.30;72.70;;;;;;5053486;28;20396;-68
2021/06/05 10:50:50;;;;;;;4.82;2.60;;;22.40;72.30;;;;;;5040227;28;20057;-69
2021/06/05 10:53:27;;;;;;;4.35;2.10;;;22.40;72.40;;;;;;5017482;28;20513;-68
2021/06/05 10:56:00;;;;;;;2.13;1.90;;;22.50;72.10;;;;;;5045541;28;20040;-68
2021/06/05 10:58:39;;;;;;;3.45;2.15;;;22.50;72.00;;;;;;5053851;28;20035;-68
2021/06/05 11:01:11;;;;;;;2.38;1.60;;;22.60;72.10;;;;;;5052907;28;20428;-68
2021/06/05 11:03:37;;;;;;;3.38;1.90;;;22.70;71.80;;;;;;5053805;28;20017;-68
2021/06/05 11:06:16;;;;;;;2.38;2.10;;;22.60;71.20;;;;;;5052823;28;20025;-68
2021/06/05 11:09:20;;;;;;;1.90;1.80;;;22.60;70.50;;;;;;5051109;28;20071;-69
2021/06/05 11:11:50;;;;;;;2.38;1.80;;;22.50;70.40;;;;;;5046613;28;20481;-69
2021/06/05 11:14:22;;;;;;;2.65;1.83;;;22.50;70.10;;;;;;5046500;28;20029;-69
2021/06/05 11:17:00;;;;;;;3.25;2.00;;;22.50;70.10;;;;;;5052797;28;20445;-68
2021/06/05 11:19:34;;;;;;;2.45;1.83;;;22.40;70.00;;;;;;5049677;28;20025;-69
2021/06/05 11:22:04;;;;;;;3.00;1.63;;;22.40;70.10;;;;;;5033549;28;20076;-69
2021/06/05 11:24:30;;;;;;;2.88;1.92;;;22.30;70.50;;;;;;5046836;28;20104;-68
2021/06/05 11:26:59;;;;;;;3.83;1.75;;;22.30;71.20;;;;;;5033699;28;20040;-69
2021/06/05 11:29:28;;;;;;;3.15;1.55;;;22.30;70.50;;;;;;5051799;28;20060;-69
2021/06/05 11:31:58;;;;;;;3.50;1.75;;;22.40;70.50;;;;;;5049178;28;20040;-69
2021/06/05 11:34:29;;;;;;;2.13;1.52;;;22.50;70.60;;;;;;5044840;28;20090;-75
2021/06/05 11:37:11;;;;;;;2.83;1.85;;;22.50;70.60;;;;;;5035357;28;20021;-73
2021/06/05 11:39:36;;;;;;;3.03;1.60;;;22.60;70.30;;;;;;5052308;28;20032;-73
2021/06/05 11:42:20;;;;;;;1.70;1.60;;;22.70;70.40;;;;;;5051429;28;20021;-73
2021/06/05 11:44:46;;;;;;;3.22;1.30;;;22.80;71.00;;;;;;5031080;28;20115;-75
2021/06/05 11:47:19;;;;;;;2.25;1.55;;;22.90;70.40;;;;;;5049481;28;20045;-75
2021/06/05 11:49:47;;;;;;;;;;;22.90;70.20;;;;;;5017067;28;20049;-76
2021/06/05 11:52:32;;;;;;;1.40;1.30;;;22.80;70.20;;;;;;5033085;28;19948;-76
2021/06/05 11:55:02;;;;;;;1.80;1.70;;;22.80;71.20;;;;;;5050315;28;20074;-75
2021/06/05 11:57:40;;;;;;;4.38;2.10;;;22.80;70.80;;;;;;5043260;28;20029;-78
2021/06/05 12:00:16;;;;;;;3.25;1.75;;;22.80;71.00;;;;;;5042628;28;20018;-79
2021/06/05 12:02:44;;;;;;;3.03;1.40;;;22.90;71.30;;;;;;5031341;28;20099;-75
2021/06/05 12:05:19;;;;;;;2.15;1.58;;;22.90;71.20;;;;;;5031696;28;20033;-76
2021/06/05 12:07:45;;;;;;;2.72;1.52;;;23.00;71.30;;;;;;5036910;28;20029;-76
2021/06/05 12:10:14;;;;;;;1.23;0.98;;;23.00;71.40;;;;;;5051736;28;20516;-76
2021/06/05 12:12:48;;;;;;;3.58;0.75;;;23.00;70.90;;;;;;5052882;28;20074;-76
2021/06/05 12:15:21;;;;;;;0.70;0.70;;;23.00;69.80;;;;;;5051626;28;20024;-75
2021/06/05 12:18:09;;;;;;;3.63;0.50;;;23.10;69.40;;;;;;5051658;28;20028;-76
2021/06/05 12:20:37;;;;;;;0.70;0.40;;;23.20;68.80;;;;;;5047655;28;20028;-76
2021/06/05 12:23:30;;;;;;;0.98;0.50;;;23.20;67.90;;;;;;5046889;28;20067;-76
2021/06/05 12:26:09;;;;;;;0.43;0.43;;;23.20;67.10;;;;;;5048731;28;20432;-76
2021/06/05 12:28:38;;;;;;;1.77;0.50;;;23.20;66.80;;;;;;5050761;28;20025;-76
2021/06/05 12:31:28;;;;;;;0.75;0.75;;;23.20;66.90;;;;;;5048245;28;20029;-76
2021/06/05 12:34:06;;;;;;;1.67;0.60;;;23.30;67.00;;;;;;5048486;28;20055;-77
2021/06/05 12:36:35;;;;;;;1.10;0.73;;;23.40;66.70;;;;;;5035668;28;20029;-76
2021/06/05 12:39:25;;;;;;;1.25;0.50;;;23.40;66.00;;;;;;5050036;28;20025;-72
2021/06/05 12:41:53;;;;;;;0.90;0.52;;;23.40;65.70;;;;;;5003696;28;20075;-73
2021/06/05 12:44:21;;;;;;;1.15;0.70;;;23.30;65.80;;;;;;5049720;28;20029;-71
2021/06/05 12:46:48;;;;;;;3.63;0.70;;;23.20;66.10;;;;;;5047842;28;20477;-70
2021/06/05 12:49:16;;;;;;;1.10;0.70;;;23.20;66.00;;;;;;5045226;28;20043;-74
2021/06/05 12:51:48;;;;;;;1.95;0.75;;;23.20;65.90;;;;;;5035932;28;20024;-74
2021/06/05 12:54:36;;;;;;;0.63;0.60;;;23.10;66.00;;;;;;5049133;28;20041;-75
2021/06/05 12:57:37;;;;;;;3.03;0.60;;;23.10;65.90;;;;;;5025137;28;20073;-75
2021/06/05 13:00:21;;;;;;;1.05;0.80;;;23.00;66.30;;;;;;5029272;28;20024;-74
2021/06/05 13:02:49;;;;;;;6.75;0.95;;;23.00;66.40;;;;;;5041889;28;20024;-73
2021/06/05 13:05:29;;;;;;;1.85;0.70;;;22.90;66.00;;;;;;5032718;28;20036;-74
2021/06/05 13:08:09;;;;;;;1.92;0.90;;;22.80;66.20;;;;;;5022029;28;20034;-73